Time;durP1;ratioP1;P1;durP2;ratioP2;P2;SDS_P1;SDS_P2;PMS_P1;PMS_P2;Temp;Humidity;BMP_temperature;BMP_pressure;BME280_temperature;BME280_humidity;BME280_pressure;Samples;Min_cycle;Max_cycle;Signal;HPM_P1;HPM_P2
2022/02/05 00:01:04;;;;;;;82.88;28.05;;;-6.60;90.30;;;;;;4885491;29;20036;-79
2022/02/05 00:03:42;;;;;;;89.63;30.35;;;-6.70;90.00;;;;;;4887611;29;20100;-79
2022/02/05 00:06:21;;;;;;;90.13;30.80;;;-6.70;90.00;;;;;;4866403;29;20025;-79
2022/02/05 00:09:08;;;;;;;79.85;28.70;;;-6.70;90.40;;;;;;4884828;29;20048;-79
2022/02/05 00:40:51;;;;;;;39.33;16.73;;;-6.60;89.60;;;;;;4900807;29;20482;-78
2022/02/05 00:43:46;;;;;;;57.50;19.38;;;-6.70;90.10;;;;;;4900086;29;20051;-79
2022/02/05 00:46:25;;;;;;;41.22;16.45;;;-6.80;89.70;;;;;;4899961;29;20095;-79
2022/02/05 00:48:55;;;;;;;33.70;14.63;;;-6.90;88.20;;;;;;4883288;29;20060;-78
2022/02/05 00:51:39;;;;;;;37.55;15.38;;;-7.00;89.00;;;;;;4899286;29;20105;-78
2022/02/05 00:54:18;;;;;;;40.50;17.73;;;-7.10;89.30;;;;;;4899617;29;20141;-78
2022/02/05 00:56:56;;;;;;;43.08;16.10;;;-7.10;89.40;;;;;;4917717;29;20111;-78
2022/02/05 00:59:29;;;;;;;53.05;20.80;;;-7.10;88.60;;;;;;4873558;29;20039;-78
2022/02/05 01:02:14;;;;;;;55.53;23.73;;;-7.30;90.00;;;;;;4918570;29;20060;-79
2022/02/05 01:04:42;;;;;;;64.10;25.70;;;-7.40;91.00;;;;;;4900332;29;20028;-77
2022/02/05 01:07:14;;;;;;;64.78;24.95;;;-7.40;90.80;;;;;;4884934;29;20056;-78
2022/02/05 01:09:48;;;;;;;64.30;25.25;;;-7.50;90.80;;;;;;4901325;29;20036;-77
2022/02/05 01:12:15;;;;;;;62.83;25.33;;;-7.60;90.70;;;;;;4901280;29;20043;-78
2022/02/05 01:14:49;;;;;;;53.67;22.90;;;-7.70;90.90;;;;;;4887600;29;20036;-78
2022/02/05 01:17:24;;;;;;;64.60;25.20;;;-7.80;90.40;;;;;;4886966;29;20044;-77
2022/02/05 01:22:40;;;;;;;53.58;23.40;;;-7.80;91.40;;;;;;4886382;29;20104;-78
2022/02/05 01:25:22;;;;;;;51.10;20.42;;;-7.70;91.80;;;;;;4882305;29;20036;-78
2022/02/05 01:27:56;;;;;;;48.88;19.77;;;-7.70;91.80;;;;;;4882246;29;20041;-78
2022/02/05 01:30:35;;;;;;;39.88;16.73;;;-7.70;92.20;;;;;;4866878;29;20040;-78
2022/02/05 02:12:18;;;;;;;35.17;14.88;;;-7.70;91.20;;;;;;4868616;29;20109;-79
2022/02/05 02:28:42;;;;;;;47.55;19.85;;;-8.00;91.50;;;;;;4866462;29;20089;-78
2022/02/05 02:31:16;;;;;;;37.95;15.90;;;-8.00;91.50;;;;;;4878824;29;20041;-79
2022/02/05 02:33:46;;;;;;;40.63;17.88;;;-8.10;92.00;;;;;;4879058;29;20057;-81
2022/02/05 02:36:41;;;;;;;41.33;17.15;;;-8.10;92.00;;;;;;4879687;29;20037;-80
2022/02/05 02:39:24;;;;;;;36.88;15.90;;;-8.10;92.30;;;;;;4877284;29;20053;-80
2022/02/05 02:42:02;;;;;;;40.00;18.13;;;-8.10;92.50;;;;;;4882534;29;20112;-80
2022/02/05 02:44:35;;;;;;;33.38;14.25;;;-8.20;92.20;;;;;;4866898;29;20033;-80
2022/02/05 02:47:27;;;;;;;34.53;14.65;;;-8.20;91.90;;;;;;4883476;29;20124;-80
2022/02/05 02:58:58;;;;;;;40.35;17.35;;;-8.30;91.90;;;;;;4883263;29;20044;-80
2022/02/05 03:01:34;;;;;;;36.97;15.35;;;-8.30;92.30;;;;;;4851516;29;20069;-80
2022/02/05 03:04:03;;;;;;;46.70;19.15;;;-8.20;91.70;;;;;;4866739;29;20033;-80
2022/02/05 03:06:50;;;;;;;40.70;16.48;;;-8.40;91.70;;;;;;4882066;29;20541;-79
2022/02/05 03:09:22;;;;;;;42.53;18.08;;;-8.40;91.60;;;;;;4865649;29;20053;-79
2022/02/05 03:12:12;;;;;;;33.90;16.23;;;-8.40;93.00;;;;;;4866082;29;20131;-80
2022/02/05 03:14:40;;;;;;;40.15;16.63;;;-8.40;92.20;;;;;;4875011;29;20431;-80
2022/02/05 03:17:40;;;;;;;36.30;16.00;;;-8.40;93.00;;;;;;4887537;29;20044;-79
2022/02/05 03:20:13;;;;;;;34.88;15.32;;;-8.40;93.60;;;;;;4882711;29;20048;-80
2022/02/05 03:22:43;;;;;;;37.05;16.10;;;-8.30;93.10;;;;;;4884612;29;20033;-80
2022/02/05 03:25:15;;;;;;;41.10;16.00;;;-8.30;93.80;;;;;;4901108;29;20074;-80
2022/02/05 03:27:54;;;;;;;38.10;15.05;;;-8.30;92.70;;;;;;4884625;29;20025;-80
2022/02/05 03:30:26;;;;;;;35.70;14.25;;;-8.20;92.80;;;;;;4884837;29;20028;-80
2022/02/05 03:33:24;;;;;;;30.02;13.55;;;-8.20;92.50;;;;;;4884852;29;20051;-79
2022/02/05 03:35:50;;;;;;;37.30;15.75;;;-8.20;92.70;;;;;;4883601;29;20056;-80
2022/02/05 03:38:20;;;;;;;33.58;14.68;;;-8.20;92.20;;;;;;4883540;29;20036;-79
2022/02/05 03:40:45;;;;;;;35.15;15.18;;;-6.40;92.70;;;;;;4868948;29;20040;-80
2022/02/05 03:43:12;;;;;;;38.78;15.32;;;-8.20;92.30;;;;;;4901498;29;20028;-80
2022/02/05 03:45:48;;;;;;;37.28;15.75;;;-8.20;93.30;;;;;;4881814;29;20390;-80
2022/02/05 03:48:20;;;;;;;46.30;19.50;;;-8.20;92.90;;;;;;4865975;29;20399;-80
2022/02/05 03:50:53;;;;;;;47.50;19.98;;;-8.20;92.60;;;;;;4882498;29;20048;-80
2022/02/05 03:53:26;;;;;;;43.97;18.90;;;-8.20;93.40;;;;;;4865277;29;20093;-80
2022/02/05 03:55:53;;;;;;;43.17;18.80;;;-8.20;93.10;;;;;;4863437;29;20402;-80
2022/02/05 03:58:25;;;;;;;40.72;17.42;;;-8.20;93.20;;;;;;4883511;29;20028;-80
2022/02/05 04:00:52;;;;;;;32.83;15.15;;;-8.20;93.30;;;;;;4874087;29;20449;-81
2022/02/05 04:03:22;;;;;;;41.85;19.17;;;-8.20;93.90;;;;;;4891104;29;20029;-80
2022/02/05 04:05:48;;;;;;;42.75;19.52;;;-8.20;94.50;;;;;;4875878;29;20093;-80
2022/02/05 04:08:24;;;;;;;35.33;16.00;;;-8.20;95.10;;;;;;4864701;29;20139;-79
2022/02/05 04:11:26;;;;;;;36.38;15.88;;;-8.20;94.60;;;;;;4874690;29;20093;-80
2022/02/05 04:17:03;;;;;;;39.97;16.20;;;-8.10;93.90;;;;;;4881640;29;20048;-79
2022/02/05 04:19:37;;;;;;;31.92;13.68;;;-8.10;94.80;;;;;;4882216;29;20089;-79
2022/02/05 04:22:17;;;;;;;51.25;19.30;;;-6.00;95.60;;;;;;4895734;29;20043;-85
2022/02/05 04:24:47;;;;;;;58.60;20.77;;;-7.90;95.70;;;;;;4898946;29;20028;-85
2022/02/05 04:27:13;;;;;;;84.28;34.15;;;-7.90;95.20;;;;;;4901115;29;20060;-85
2022/02/05 04:29:39;;;;;;;76.90;30.67;;;-7.80;96.40;;;;;;4899577;29;20040;-82
2022/02/05 04:32:07;;;;;;;71.25;28.55;;;-7.80;96.00;;;;;;4898095;29;20542;-81
2022/02/05 04:34:33;;;;;;;85.03;33.10;;;-7.70;96.20;;;;;;4899029;29;20491;-80
2022/02/05 04:37:01;;;;;;;78.25;31.60;;;-7.70;96.50;;;;;;4899246;29;20043;-80
2022/02/05 04:39:29;;;;;;;68.43;29.02;;;-7.60;96.00;;;;;;4900127;29;20029;-83
2022/02/05 04:42:04;;;;;;;69.85;29.17;;;-7.60;95.20;;;;;;4898409;29;20471;-87
2022/02/05 04:45:35;;;;;;;80.35;32.00;;;-7.50;95.50;;;;;;4900710;29;20024;-82
2022/02/05 04:58:01;;;;;;;69.40;29.40;;;-7.30;95.80;;;;;;4883153;29;20076;-81
2022/02/05 05:03:45;;;;;;;65.25;25.20;;;-7.20;95.10;;;;;;4882461;29;20040;-81
2022/02/05 05:06:46;;;;;;;64.80;26.48;;;-7.20;94.20;;;;;;4888031;29;20048;-80
2022/02/05 05:21:42;;;;;;;38.92;17.55;;;-7.10;92.90;;;;;;4911083;29;20104;-80
2022/02/05 05:24:11;;;;;;;36.28;15.80;;;-7.10;93.40;;;;;;4909338;29;20036;-86
2022/02/05 05:26:37;;;;;;;38.20;17.10;;;-7.00;93.10;;;;;;4894231;29;20044;-90
2022/02/05 05:29:03;;;;;;;42.63;18.70;;;-7.00;93.40;;;;;;4903183;29;20044;-88
2022/02/05 05:31:29;;;;;;;40.63;16.90;;;-7.00;93.80;;;;;;4907220;29;20486;-81
2022/02/05 05:33:57;;;;;;;38.13;14.65;;;-6.90;93.60;;;;;;4900362;29;20040;-81
2022/02/05 05:36:23;;;;;;;35.50;15.65;;;-6.90;93.00;;;;;;4918227;29;20095;-86
2022/02/05 05:38:49;;;;;;;40.00;18.02;;;-6.80;93.10;;;;;;4883818;29;20399;-88
2022/02/05 05:41:15;;;;;;;42.00;18.45;;;-6.80;93.20;;;;;;4897085;29;20036;-84
2022/02/05 05:46:32;;;;;;;47.10;21.13;;;-6.60;92.70;;;;;;4898247;29;20099;-90
2022/02/05 05:49:10;;;;;;;38.58;16.88;;;-6.60;92.70;;;;;;4881430;29;20025;-84
2022/02/05 05:51:37;;;;;;;41.03;18.58;;;-6.50;92.60;;;;;;4904005;29;20042;-83
2022/02/05 05:54:05;;;;;;;46.65;20.52;;;-6.40;92.40;;;;;;4896406;29;20025;-83
2022/02/05 05:56:32;;;;;;;46.30;20.55;;;-6.40;92.20;;;;;;4879419;29;20534;-82
2022/02/05 05:59:02;;;;;;;50.63;22.58;;;-6.30;91.90;;;;;;4908534;29;20059;-82
2022/02/05 06:01:29;;;;;;;59.10;25.38;;;-6.20;91.50;;;;;;4877634;29;20407;-82
2022/02/05 06:03:54;;;;;;;52.97;24.33;;;-6.20;91.70;;;;;;4897282;29;20044;-83
2022/02/05 06:06:20;;;;;;;48.10;22.20;;;-6.20;91.60;;;;;;4905411;29;20041;-83
2022/02/05 06:08:46;;;;;;;51.17;22.27;;;-6.10;91.50;;;;;;4900683;29;20079;-82
2022/02/05 06:11:13;;;;;;;39.53;19.08;;;-6.10;91.60;;;;;;4905463;29;20028;-79
2022/02/05 06:13:43;;;;;;;46.10;19.55;;;-6.10;91.70;;;;;;4907916;29;20068;-79
2022/02/05 06:16:17;;;;;;;49.95;20.73;;;-6.00;91.80;;;;;;4896253;29;20042;-79
2022/02/05 06:18:44;;;;;;;45.67;22.20;;;-5.90;91.30;;;;;;4865737;29;20068;-78
2022/02/05 06:21:14;;;;;;;45.83;21.73;;;-5.90;91.40;;;;;;4878366;29;20081;-81
2022/02/05 06:23:44;;;;;;;48.60;22.58;;;-5.80;91.20;;;;;;4892784;29;20044;-82
2022/02/05 06:26:09;;;;;;;44.27;20.40;;;-5.80;90.70;;;;;;4893509;29;20036;-83
2022/02/05 06:28:35;;;;;;;39.50;20.15;;;-5.80;90.50;;;;;;4904728;29;20383;-81
2022/02/05 06:31:01;;;;;;;43.08;21.55;;;-5.70;90.10;;;;;;4900380;29;20035;-84
2022/02/05 06:33:27;;;;;;;42.53;20.42;;;-5.70;90.00;;;;;;4920695;29;20046;-82
2022/02/05 06:35:53;;;;;;;41.67;18.80;;;-5.60;90.40;;;;;;4913700;29;20060;-84
2022/02/05 06:38:19;;;;;;;49.08;20.33;;;-5.60;90.40;;;;;;4884783;29;20064;-83
2022/02/05 06:40:45;;;;;;;44.13;19.00;;;-5.50;90.50;;;;;;4883948;29;20458;-83
2022/02/05 06:43:11;;;;;;;47.03;18.88;;;-5.30;90.10;;;;;;4901349;29;20063;-83
2022/02/05 06:45:37;;;;;;;39.42;16.42;;;-5.30;90.30;;;;;;4901583;29;20056;-81
2022/02/05 06:48:03;;;;;;;36.30;16.30;;;-5.20;90.30;;;;;;4884546;29;20063;-82
2022/02/05 06:50:29;;;;;;;38.70;17.70;;;-5.10;89.70;;;;;;4901952;29;20052;-86
2022/02/05 06:52:54;;;;;;;38.08;17.25;;;-5.10;90.00;;;;;;4893413;29;20040;-82
2022/02/05 06:55:20;;;;;;;31.10;14.32;;;-4.90;89.20;;;;;;4897909;29;20033;-83
2022/02/05 06:57:46;;;;;;;32.35;16.20;;;-4.80;88.60;;;;;;4883864;29;20028;-83
2022/02/05 07:00:12;;;;;;;40.25;19.48;;;-4.80;88.10;;;;;;4900214;29;20036;-84
2022/02/05 07:02:43;;;;;;;40.08;20.63;;;-4.80;87.60;;;;;;4883262;29;20081;-83
2022/02/05 07:05:10;;;;;;;42.45;20.05;;;-4.70;87.90;;;;;;4894067;29;20120;-81
2022/02/05 07:07:35;;;;;;;32.00;16.33;;;-4.60;87.80;;;;;;4895084;29;20078;-84
2022/02/05 07:10:01;;;;;;;33.35;15.70;;;-4.50;87.80;;;;;;4885614;29;20033;-86
2022/02/05 07:12:27;;;;;;;40.47;17.52;;;-4.40;87.60;;;;;;4885633;29;20035;-83
2022/02/05 07:17:41;;;;;;;35.53;16.45;;;-4.30;87.50;;;;;;4906453;29;20068;-83
2022/02/05 07:22:44;;;;;;;34.60;15.93;;;-4.20;86.20;;;;;;4910269;29;20051;-84
2022/02/05 07:30:19;;;;;;;30.92;15.30;;;-4.10;86.30;;;;;;4901471;29;20040;-83
2022/02/05 07:32:45;;;;;;;35.65;17.85;;;-4.00;86.10;;;;;;4884283;29;20033;-83
2022/02/05 07:35:11;;;;;;;36.72;18.13;;;-4.00;85.90;;;;;;4884425;29;20040;-82
2022/02/05 07:37:36;;;;;;;31.00;15.30;;;-4.00;85.80;;;;;;4884244;29;20490;-83
2022/02/05 07:40:02;;;;;;;41.47;18.10;;;-3.80;85.30;;;;;;4884195;29;20173;-83
2022/02/05 07:42:28;;;;;;;37.53;17.45;;;-3.80;84.30;;;;;;4887596;29;20039;-83
2022/02/05 07:44:54;;;;;;;38.47;16.35;;;-3.80;84.40;;;;;;4893893;29;20028;-83
2022/02/05 07:47:22;;;;;;;35.05;15.45;;;-3.70;84.30;;;;;;4909409;29;20032;-85
2022/02/05 07:49:48;;;;;;;35.22;15.98;;;-3.70;84.40;;;;;;4910028;29;20075;-84
2022/02/05 07:52:14;;;;;;;37.53;17.27;;;-3.70;84.60;;;;;;4894380;29;20419;-83
2022/02/05 07:54:40;;;;;;;48.05;19.25;;;-3.60;84.10;;;;;;4893185;29;20257;-85
2022/02/05 07:57:07;;;;;;;44.03;19.25;;;-3.60;83.50;;;;;;4894097;29;20096;-84
2022/02/05 07:59:33;;;;;;;47.85;20.17;;;-3.60;83.60;;;;;;4891742;29;20036;-84
2022/02/05 08:01:59;;;;;;;45.05;19.02;;;-3.50;83.00;;;;;;4890150;29;20111;-83
2022/02/05 08:04:25;;;;;;;40.17;18.40;;;-3.50;82.70;;;;;;4891837;29;20037;-83
2022/02/05 08:06:51;;;;;;;32.53;15.60;;;-3.50;82.40;;;;;;4896149;29;20032;-83
2022/02/05 08:09:23;;;;;;;42.38;17.55;;;-3.60;83.00;;;;;;4901815;29;20055;-82
2022/02/05 08:11:55;;;;;;;37.65;17.77;;;-3.60;83.90;;;;;;4899201;29;20036;-82
2022/02/05 08:14:22;;;;;;;38.10;18.20;;;-3.60;83.90;;;;;;4899926;29;20024;-82
2022/02/05 08:16:58;;;;;;;46.97;21.38;;;-3.50;83.70;;;;;;4902289;29;20410;-81
2022/02/05 08:19:23;;;;;;;47.83;19.92;;;-3.50;83.90;;;;;;4902202;29;20059;-82
2022/02/05 08:21:49;;;;;;;41.58;19.05;;;-3.40;83.90;;;;;;4902444;29;20125;-82
2022/02/05 08:24:16;;;;;;;41.17;18.35;;;-3.40;84.30;;;;;;4902595;29;20028;-82
2022/02/05 08:26:42;;;;;;;37.40;16.20;;;-3.20;84.00;;;;;;4902183;29;20043;-82
2022/02/05 08:29:10;;;;;;;42.47;18.02;;;-3.30;84.10;;;;;;4903835;29;20029;-82
2022/02/05 08:31:36;;;;;;;39.97;17.65;;;-3.10;83.70;;;;;;4924214;29;20043;-83
2022/02/05 08:34:02;;;;;;;42.90;19.13;;;-3.00;83.30;;;;;;4903603;29;20043;-82
2022/02/05 08:36:33;;;;;;;38.47;18.35;;;-2.90;83.30;;;;;;4918997;29;20039;-81
2022/02/05 08:38:59;;;;;;;41.80;18.08;;;-2.90;83.00;;;;;;4919012;29;20032;-82
2022/02/05 08:41:25;;;;;;;38.70;17.02;;;-2.90;83.40;;;;;;4901767;29;20035;-83
2022/02/05 08:43:51;;;;;;;40.65;18.50;;;-2.80;83.40;;;;;;4901692;29;20034;-81
2022/02/05 08:46:17;;;;;;;37.50;17.05;;;-2.70;83.00;;;;;;4901580;29;20413;-82
2022/02/05 08:48:42;;;;;;;34.92;16.48;;;-2.70;82.70;;;;;;4900999;29;20395;-82
2022/02/05 08:51:11;;;;;;;34.00;16.80;;;-2.60;82.70;;;;;;4900723;29;20386;-82
2022/02/05 08:53:37;;;;;;;35.28;16.92;;;-2.50;82.60;;;;;;4901783;29;20079;-83
2022/02/05 08:56:03;;;;;;;39.50;18.38;;;-2.50;82.60;;;;;;4897603;29;20036;-83
2022/02/05 08:58:29;;;;;;;42.20;19.88;;;-2.40;82.40;;;;;;4916428;29;20645;-82
2022/02/05 09:01:09;;;;;;;34.63;18.02;;;-2.30;82.00;;;;;;4899279;29;20032;-82
2022/02/05 09:04:06;;;;;;;46.78;22.05;;;-2.30;81.90;;;;;;4915039;29;20036;-82
2022/02/05 09:06:30;;;;;;;39.65;19.42;;;-2.20;81.60;;;;;;4918348;29;20493;-82
2022/02/05 09:09:22;;;;;;;34.53;17.00;;;-2.10;81.40;;;;;;4903038;29;20052;-81
2022/02/05 09:11:56;;;;;;;33.45;15.40;;;-2.10;81.30;;;;;;4900790;29;20501;-83
2022/02/05 09:16:51;;;;;;;23.55;12.05;;;-1.90;81.20;;;;;;4915813;29;20040;-82
2022/02/05 09:19:16;;;;;;;20.67;10.73;;;-1.80;81.10;;;;;;4898384;29;20032;-81
2022/02/05 09:21:42;;;;;;;20.33;9.60;;;-1.70;80.80;;;;;;4915684;29;20159;-83
2022/02/05 09:24:09;;;;;;;18.48;9.32;;;-1.70;80.60;;;;;;4898576;29;20036;-82
2022/02/05 09:26:37;;;;;;;19.33;9.48;;;-1.60;80.10;;;;;;4898540;29;20171;-81
2022/02/05 09:29:13;;;;;;;17.90;9.15;;;-1.50;79.20;;;;;;4915927;29;20034;-82
2022/02/05 09:31:45;;;;;;;19.40;10.23;;;-1.40;78.20;;;;;;4901742;29;20040;-80
2022/02/05 09:34:11;;;;;;;20.35;10.57;;;-1.40;77.30;;;;;;4898420;29;20490;-82
2022/02/05 09:36:39;;;;;;;19.70;10.48;;;-1.40;76.50;;;;;;4883978;29;20050;-81
2022/02/05 09:39:07;;;;;;;18.92;10.13;;;-1.40;75.90;;;;;;4918488;29;20111;-80
2022/02/05 09:41:32;;;;;;;22.88;10.88;;;-1.40;76.00;;;;;;4915256;29;20038;-82
2022/02/05 09:44:02;;;;;;;20.25;10.13;;;-1.40;75.70;;;;;;4898719;29;20024;-80
2022/02/05 09:46:28;;;;;;;20.75;10.43;;;-1.40;75.80;;;;;;4897368;29;20028;-82
2022/02/05 09:48:54;;;;;;;23.70;11.45;;;-1.40;75.90;;;;;;4898335;29;20028;-83
2022/02/05 09:51:33;;;;;;;21.40;10.48;;;-1.40;75.60;;;;;;4897577;29;20036;-82
2022/02/05 09:54:03;;;;;;;27.20;13.77;;;-1.50;75.40;;;;;;4898368;29;20111;-81
2022/02/05 09:56:34;;;;;;;22.17;11.82;;;-1.50;76.10;;;;;;4897854;29;20036;-83
2022/02/05 09:59:00;;;;;;;20.05;10.55;;;-1.40;76.10;;;;;;4897242;29;20063;-84
2022/02/05 10:01:30;;;;;;;20.48;10.57;;;-1.40;75.40;;;;;;4897899;29;20024;-82
2022/02/05 10:03:58;;;;;;;22.15;11.40;;;-1.30;75.50;;;;;;4898355;29;20052;-81
2022/02/05 10:06:39;;;;;;;22.00;11.93;;;-1.30;76.10;;;;;;4903256;29;20071;-80
2022/02/05 10:09:09;;;;;;;;;;;-1.30;75.60;;;;;;4900314;29;20052;-81
2022/02/05 10:12:03;;;;;;;20.48;11.13;;;-1.30;75.50;;;;;;4884113;29;20339;-81
2022/02/05 10:14:40;;;;;;;21.33;11.43;;;-1.20;75.40;;;;;;4878465;29;20040;-82
2022/02/05 10:19:55;;;;;;;23.50;12.50;;;-1.10;75.40;;;;;;4882603;29;20032;-81
2022/02/05 10:22:22;;;;;;;21.30;12.20;;;-1.00;75.10;;;;;;4878733;29;20043;-81
2022/02/05 10:24:56;;;;;;;16.85;9.68;;;-1.00;73.80;;;;;;4864035;29;20050;-82
2022/02/05 10:27:37;;;;;;;16.55;8.90;;;-1.10;73.80;;;;;;4895998;29;20080;-81
2022/02/05 10:30:28;;;;;;;20.77;9.70;;;-1.10;74.60;;;;;;4878863;29;20039;-83
2022/02/05 10:33:19;;;;;;;20.77;10.43;;;-1.00;74.30;;;;;;4879712;29;20064;-84
2022/02/05 10:36:11;;;;;;;20.55;9.98;;;-1.00;74.10;;;;;;4893863;29;20096;-84
2022/02/05 10:44:21;;;;;;;17.38;9.63;;;-0.90;74.10;;;;;;4896000;29;20104;-82
2022/02/05 10:46:59;;;;;;;18.60;9.50;;;-0.90;73.90;;;;;;4864226;29;20035;-82
2022/02/05 10:49:52;;;;;;;20.80;10.20;;;-0.90;73.30;;;;;;4880556;29;20132;-80
2022/02/05 10:52:25;;;;;;;19.17;10.40;;;-0.90;73.40;;;;;;4898095;29;20035;-79
2022/02/05 10:55:13;;;;;;;22.08;11.20;;;-0.90;73.80;;;;;;4881280;29;20041;-79
2022/02/05 11:05:53;;;;;;;17.17;9.63;;;-0.80;75.30;;;;;;4902336;29;20077;-79
2022/02/05 11:08:20;;;;;;;18.30;9.45;;;-0.70;75.00;;;;;;4886474;29;20052;-79
2022/02/05 11:21:04;;;;;;;19.10;9.48;;;-0.30;75.70;;;;;;4899173;29;20033;-79
2022/02/05 11:23:31;;;;;;;18.40;9.88;;;-0.30;76.80;;;;;;4899067;29;20221;-77
2022/02/05 11:25:58;;;;;;;20.35;10.98;;;-0.40;77.90;;;;;;4884174;29;20029;-78
2022/02/05 11:28:45;;;;;;;19.55;10.30;;;-0.30;78.70;;;;;;4884686;29;20380;-80
2022/02/05 11:31:35;;;;;;;22.25;10.73;;;-0.30;79.80;;;;;;4901208;29;20040;-79
2022/02/05 11:34:28;;;;;;;18.65;8.93;;;-0.30;80.70;;;;;;4901440;29;20381;-79
2022/02/05 11:37:09;;;;;;;20.08;9.82;;;-0.30;81.00;;;;;;4901075;29;20089;-79
2022/02/05 11:39:42;;;;;;;;;;;-0.30;82.10;;;;;;4884675;29;20403;-79
2022/02/05 11:42:27;;;;;;;17.23;8.73;;;-0.30;82.00;;;;;;4900811;29;19998;-79
2022/02/05 11:44:52;;;;;;;18.02;9.18;;;-0.20;82.20;;;;;;4884266;29;20029;-79
2022/02/05 11:47:18;;;;;;;16.90;9.20;;;-0.30;82.20;;;;;;4884082;29;20029;-78
2022/02/05 11:49:53;;;;;;;17.98;9.73;;;-0.20;82.90;;;;;;4883808;29;20060;-80
2022/02/05 11:52:37;;;;;;;17.25;9.20;;;-0.30;84.20;;;;;;4900705;29;20164;-80
2022/02/05 11:55:09;;;;;;;18.00;9.48;;;-0.40;85.90;;;;;;4900728;29;20044;-80
2022/02/05 11:57:46;;;;;;;18.40;9.90;;;-0.50;87.00;;;;;;4900748;29;20156;-78
2022/02/05 12:00:20;;;;;;;18.05;9.23;;;-0.40;87.70;;;;;;4884615;29;20033;-78
2022/02/05 12:03:08;;;;;;;18.08;9.30;;;-0.50;88.80;;;;;;4884055;29;20059;-79
2022/02/05 12:05:37;;;;;;;17.30;8.95;;;-0.50;89.50;;;;;;4885019;29;20041;-80
2022/02/05 12:08:06;;;;;;;20.17;9.38;;;-0.60;89.90;;;;;;4902443;29;20111;-79
2022/02/05 12:10:40;;;;;;;18.15;9.70;;;-0.60;90.70;;;;;;4885674;29;20376;-79
2022/02/05 12:13:15;;;;;;;17.25;8.77;;;-0.60;92.10;;;;;;4883525;29;20056;-82
2022/02/05 12:15:42;;;;;;;18.20;9.30;;;-0.60;92.50;;;;;;4901265;29;20036;-80
2022/02/05 12:21:02;;;;;;;19.05;9.75;;;-0.70;93.50;;;;;;4902761;29;20033;-79
2022/02/05 12:26:18;;;;;;;23.38;11.60;;;-0.90;94.20;;;;;;4900529;29;20032;-80
2022/02/05 12:28:46;;;;;;;16.65;10.10;;;-0.80;94.60;;;;;;4883889;29;20111;-80
2022/02/05 12:31:18;;;;;;;19.65;10.07;;;-0.90;94.70;;;;;;4884011;29;20062;-80
2022/02/05 12:33:48;;;;;;;22.92;10.65;;;-0.90;95.10;;;;;;4900676;29;20028;-80
2022/02/05 12:36:25;;;;;;;18.08;9.70;;;-1.00;95.70;;;;;;4884418;29;20103;-80
2022/02/05 12:38:53;;;;;;;19.23;10.52;;;-1.00;96.10;;;;;;4883440;29;20037;-81
2022/02/05 12:41:18;;;;;;;21.30;11.45;;;-1.00;96.40;;;;;;4883566;29;20035;-80
2022/02/05 12:43:56;;;;;;;23.50;12.65;;;-1.10;97.20;;;;;;4883125;29;20032;-81
2022/02/05 12:46:27;;;;;;;25.40;12.60;;;-1.00;97.80;;;;;;4883450;29;20029;-80
2022/02/05 12:48:58;;;;;;;;;;;-1.10;98.30;;;;;;4883449;29;20130;-80
2022/02/05 12:51:28;;;;;;;20.75;12.07;;;-1.10;98.70;;;;;;4884119;29;19975;-80
2022/02/05 12:54:09;;;;;;;21.25;11.35;;;-1.10;98.40;;;;;;4883110;29;20029;-79
2022/02/05 12:56:41;;;;;;;20.38;11.45;;;-1.10;98.00;;;;;;4883439;29;20037;-84
2022/02/05 12:59:17;;;;;;;19.02;10.65;;;-1.10;98.20;;;;;;4883887;29;20116;-79
2022/02/05 13:02:01;;;;;;;19.05;10.90;;;-1.10;98.50;;;;;;4886964;29;20560;-79
2022/02/05 13:04:33;;;;;;;20.20;10.25;;;-1.10;98.20;;;;;;4886887;29;20064;-80
2022/02/05 13:07:11;;;;;;;20.73;10.85;;;-1.10;98.20;;;;;;4883467;29;20040;-81
2022/02/05 13:09:48;;;;;;;18.05;9.50;;;-1.10;98.60;;;;;;4899770;29;20514;-80
2022/02/05 13:12:18;;;;;;;21.08;11.13;;;-1.00;98.20;;;;;;4882785;29;20036;-80
2022/02/05 13:14:55;;;;;;;21.27;11.45;;;-1.00;97.60;;;;;;4882438;29;20036;-80
2022/02/05 13:18:39;;;;;;;21.25;11.98;;;-1.00;98.10;;;;;;4901458;29;20036;-82
2022/02/05 13:27:14;;;;;;;21.13;12.30;;;-1.00;98.30;;;;;;4899473;29;20065;-80
2022/02/05 13:29:54;;;;;;;22.98;13.25;;;-1.00;98.30;;;;;;4894965;29;20123;-80
2022/02/05 13:35:15;;;;;;;22.80;12.90;;;-1.10;98.70;;;;;;4883952;29;20048;-80
2022/02/05 13:37:51;;;;;;;21.77;12.43;;;-1.00;98.70;;;;;;4881997;29;20112;-81
2022/02/05 13:40:29;;;;;;;25.52;13.65;;;-1.10;98.70;;;;;;4881959;29;20036;-80
2022/02/05 13:43:06;;;;;;;24.27;13.32;;;-1.10;98.90;;;;;;4899197;29;20107;-80
2022/02/05 13:45:36;;;;;;;24.25;12.93;;;-1.10;99.70;;;;;;4882014;29;20028;-80
2022/02/05 13:48:04;;;;;;;20.83;11.88;;;-1.10;99.50;;;;;;4882109;29;20029;-81
2022/02/05 13:50:32;;;;;;;21.23;10.98;;;-1.10;99.50;;;;;;4881821;29;20037;-80
2022/02/05 13:53:07;;;;;;;19.35;11.23;;;-1.10;99.90;;;;;;4882494;29;20035;-80
2022/02/05 13:55:40;;;;;;;20.77;11.25;;;-1.10;99.80;;;;;;4898573;29;20059;-81
2022/02/05 13:58:11;;;;;;;20.77;10.25;;;-1.10;99.90;;;;;;4881909;29;20111;-79
2022/02/05 14:00:53;;;;;;;21.67;11.43;;;-1.10;99.70;;;;;;4882138;29;20032;-81
2022/02/05 14:03:28;;;;;;;25.58;13.10;;;-1.10;99.90;;;;;;4899629;29;20433;-79
2022/02/05 14:06:06;;;;;;;22.95;11.90;;;-1.20;99.90;;;;;;4884629;29;20063;-78
2022/02/05 14:08:35;;;;;;;20.65;11.07;;;-1.30;99.90;;;;;;4883215;29;20091;-79
2022/02/05 14:11:06;;;;;;;21.02;10.75;;;-1.30;99.90;;;;;;4882123;29;20071;-79
2022/02/05 14:13:32;;;;;;;22.20;11.82;;;-1.30;99.90;;;;;;4882051;29;20032;-80
2022/02/05 14:16:00;;;;;;;21.85;11.48;;;-1.30;99.90;;;;;;4881888;29;20036;-80
2022/02/05 14:18:27;;;;;;;19.80;10.85;;;-1.30;99.90;;;;;;4898609;29;20119;-80
2022/02/05 14:20:54;;;;;;;19.58;9.73;;;-1.30;99.90;;;;;;4881559;29;20064;-79
2022/02/05 14:23:23;;;;;;;19.67;9.85;;;-1.30;99.90;;;;;;4882411;29;20047;-79
2022/02/05 14:25:57;;;;;;;19.02;9.82;;;-1.30;99.90;;;;;;4898604;29;20486;-79
2022/02/05 14:28:40;;;;;;;16.17;8.95;;;-1.20;99.90;;;;;;4898387;29;20036;-79
2022/02/05 14:41:49;;;;;;;16.45;8.90;;;-1.30;99.90;;;;;;4901977;29;20530;-79
2022/02/05 14:44:18;;;;;;;17.02;8.90;;;-1.30;99.90;;;;;;4902113;29;20459;-79
2022/02/05 14:46:44;;;;;;;15.88;8.68;;;-1.40;99.90;;;;;;4884902;29;20033;-79
2022/02/05 14:49:10;;;;;;;16.23;8.95;;;-1.40;99.90;;;;;;4901662;29;20057;-79
2022/02/05 14:51:36;;;;;;;19.45;9.85;;;-1.40;99.90;;;;;;4901380;29;20028;-79
2022/02/05 14:54:02;;;;;;;17.13;9.15;;;-1.40;99.90;;;;;;4885166;29;20040;-78
2022/02/05 14:56:29;;;;;;;17.88;9.43;;;-1.40;99.90;;;;;;4884823;29;20044;-80
2022/02/05 14:58:54;;;;;;;17.05;9.43;;;-1.40;99.90;;;;;;4884873;29;20123;-79
2022/02/05 15:01:23;;;;;;;17.50;8.80;;;-1.50;99.90;;;;;;4884685;29;20176;-80
2022/02/05 15:03:49;;;;;;;18.00;8.82;;;-1.50;99.90;;;;;;4887312;29;20051;-79
2022/02/05 15:06:20;;;;;;;19.20;9.45;;;-1.50;99.90;;;;;;4886919;29;20088;-79
2022/02/05 15:08:47;;;;;;;20.58;10.35;;;-1.50;99.90;;;;;;4902843;29;20049;-80
2022/02/05 15:11:14;;;;;;;18.08;9.20;;;-1.40;99.90;;;;;;4884891;29;20033;-79
2022/02/05 15:13:44;;;;;;;18.45;9.55;;;-1.40;99.90;;;;;;4884766;29;20535;-79
2022/02/05 15:16:11;;;;;;;18.17;9.43;;;-1.50;99.90;;;;;;4884490;29;20215;-79
2022/02/05 15:18:47;;;;;;;20.23;10.48;;;-1.40;99.90;;;;;;4901337;29;20035;-80
2022/02/05 15:21:13;;;;;;;17.45;9.63;;;-1.50;99.90;;;;;;4885134;29;20391;-79
2022/02/05 15:23:38;;;;;;;18.08;9.13;;;-1.50;99.90;;;;;;4884534;29;20036;-78
2022/02/05 15:26:06;;;;;;;19.25;10.35;;;-1.50;99.90;;;;;;4884646;29;20036;-80
2022/02/05 15:28:32;;;;;;;18.85;9.30;;;-1.50;99.90;;;;;;4884113;29;20032;-80
2022/02/05 15:30:58;;;;;;;17.60;9.80;;;-1.40;99.90;;;;;;4901328;29;20037;-80
2022/02/05 15:33:25;;;;;;;20.65;10.05;;;-1.50;99.90;;;;;;4884236;29;20029;-81
2022/02/05 15:35:54;;;;;;;18.10;9.38;;;-1.40;99.90;;;;;;4884019;29;20032;-80
2022/02/05 15:38:29;;;;;;;19.98;10.13;;;-1.40;99.90;;;;;;4884252;29;20037;-81
2022/02/05 15:43:48;;;;;;;21.15;10.45;;;-1.40;99.90;;;;;;4901797;29;20470;-80
2022/02/05 15:46:14;;;;;;;22.00;11.00;;;-1.50;99.90;;;;;;4885233;29;20435;-82
2022/02/05 15:48:43;;;;;;;20.77;11.02;;;-1.50;99.90;;;;;;4883540;29;20387;-79
2022/02/05 15:51:09;;;;;;;20.00;10.35;;;-1.50;99.90;;;;;;4884017;29;20032;-80
2022/02/05 15:53:41;;;;;;;21.55;11.07;;;-1.50;99.90;;;;;;4902743;29;20036;-86
2022/02/05 15:56:11;;;;;;;22.58;11.35;;;-1.50;99.90;;;;;;4902357;29;20032;-84
2022/02/05 15:58:43;;;;;;;20.40;10.27;;;-1.40;99.90;;;;;;4901586;29;20037;-87
2022/02/05 16:01:08;;;;;;;21.23;11.07;;;-1.40;99.90;;;;;;4889501;29;20601;-88
2022/02/05 16:03:34;;;;;;;18.85;10.15;;;-1.50;99.90;;;;;;4896116;29;20073;-93
2022/02/05 16:06:03;;;;;;;18.70;9.95;;;-1.50;99.90;;;;;;4916691;29;20060;-91
2022/02/05 16:08:28;;;;;;;18.92;9.60;;;-1.50;99.90;;;;;;4899654;29;20064;-93